GUANICA PR US current weather conditions

sailwx.info

Wind from 109 at 6 knots gusting 13

Air temperature 32.2° C
Dewpoint 24.3° C

Last reported at 2018-Jul-18 15:09 UTC.
Time now 2018-Jul-18 16:33 UTC

Location: N 17°57' W 066°53'.
View on Google Maps.

See reports from other nearby stations

  
Tides and Currents Weather Stations Pressure Air Temp Water Temp Dewpoint Dewpoint Depression Visibility Wind Speed Wind Dir Waves Ship Positions
date/time (UTC)wind fromknots sea level pressurealtimeterstation pressurevisibilityair tempwater tempwave heightnotes
2018-Jul-18 15:09 109 6 gusting 13 32.2
2018-Jul-18 14:09 122 5 gusting 12 31.7
2018-Jul-18 13:09 103 5 gusting 13 31.1
2018-Jul-18 12:09 089 5 gusting 10 30.0
2018-Jul-18 11:09 077 1 gusting 6 27.8
2018-Jul-18 10:09 054 3 gusting 7 26.1
2018-Jul-18 09:09 049 3 gusting 6 26.1
2018-Jul-18 08:09 065 2 gusting 5 26.1
2018-Jul-18 07:09 045 1 gusting 4 25.6
2018-Jul-18 06:09 031 2 gusting 5 26.7
2018-Jul-18 05:09 043 3 gusting 5 26.7
2018-Jul-18 04:09 048 2 gusting 6 26.7
2018-Jul-18 03:09 050 2 gusting 6 27.2
2018-Jul-18 02:09 060 3 gusting 10 27.8
2018-Jul-18 01:09 073 4 gusting 13 27.8
2018-Jul-18 00:09 075 5 gusting 11 28.3
2018-Jul-17 23:09 067 4 gusting 12 28.9
2018-Jul-17 22:09 083 6 gusting 13 29.4
2018-Jul-17 21:09 092 6 gusting 15 31.1
2018-Jul-17 20:09 095 7 gusting 18 31.7
2018-Jul-17 19:09 096 7 gusting 16 32.2
2018-Jul-17 18:09 097 8 gusting 17 32.8
2018-Jul-17 17:09 098 6 gusting 16 32.8
2018-Jul-17 16:09 100 6 gusting 17 32.8
2018-Jul-17 15:09 094 7 gusting 17 31.7
2018-Jul-17 14:09 095 8 gusting 17 31.1
2018-Jul-17 13:09 086 6 gusting 13 30.6
2018-Jul-17 12:09 075 6 gusting 14 30.0
2018-Jul-17 11:09 069 6 gusting 12 27.8
2018-Jul-17 10:09 067 5 gusting 10 26.7
2018-Jul-17 09:09 068 4 gusting 10 26.7
2018-Jul-17 08:09 068 4 gusting 8 26.7
2018-Jul-17 07:09 065 5 gusting 10 27.2
2018-Jul-17 06:09 068 4 gusting 7 26.7
2018-Jul-17 05:09 065 3 gusting 6 26.7
2018-Jul-17 04:09 068 3 gusting 7 26.7
2018-Jul-17 03:09 081 3 gusting 8 27.2
2018-Jul-17 02:09 069 4 gusting 12 27.2
2018-Jul-17 01:09 077 6 gusting 13 27.8
2018-Jul-17 00:09 083 6 gusting 13 28.3
2018-Jul-16 23:09 081 6 gusting 14 28.3
2018-Jul-16 22:09 092 6 gusting 14 28.9
2018-Jul-16 21:09 092 6 gusting 14 29.4
2018-Jul-16 20:09 086 7 gusting 16 31.7
2018-Jul-16 19:09 102 7 gusting 17 31.7
2018-Jul-16 18:09 105 8 gusting 18 32.8
2018-Jul-16 17:09 101 8 gusting 16 32.2
2018-Jul-16 16:09 092 8 gusting 19 32.2